Aérodrome :







RETROUVEZ-NOUS SUR...

 
LOGIN :

S'inscrire | Disclaimer

   EN    FR    IT 

 









Légende :    VFR   VFR Marginal   IFR   IFR Intensif   IFR Très Intensif
Visi : 
Plafond : 
>= 8 km
>= 3000ft
5 à 8 km
1000 à 3000 ft
1500m à 5 km
500 à 1000 ft
800 à 1500m
200 à 500 ft
< 800m
< 200 ft
Symboles :   Orages  Brouillard  Fortes neiges  Fortes précipitations  Vent > 20 kt






- Altitude de l'aérodrome : 172 ft
- Code IATA : YYY


CYYY - Mont Joli

DERNIER METAR :
  • 170900Z 21008KT 30SM BKN022 M09/M13 A3048 RMK SC5 SLP329

METARs EXPIRÉS :
  • 170800Z 22008KT 30SM BKN024 M09/M13 A3049 RMK SC5 SLP330
  • 170700Z 21008KT 30SM BKN023 M09/M13 A3048 RMK SC5 SLP329

TAF TAF CYYY
Valide du 17 à 08h jusqu'au 17 à 20h UTC


170738Z 1708/1720 22010KT P6SM SCT020
TEMPO 1708/1712 BKN020
FM171200 22010KT P6SM SKC
FM171800 22010KT P6SM SCT100 RMK NXT FCST BY 171400Z



MET'MAP, la Météo Aéronautique d'un coup d'oeil ! - Copyright ORBIFLY Décembre 2007 - Disclaimer

ORBIFLY MET'MAP TEAM :

Programmation & Développement : Alexandra Zaïnal
Conception & Développement : Baudouin d'Aumeries
Co-Programmation & Développement : Marc-Olivier Méhu
Soutien technique & logistique : Manuel Goepfert

Contact : metmap@orbifly.com




SOURCES & CREDITS :

   NOAA